sensor_id;sensor_type;location;lat;lon;timestamp;P1;durP1;ratioP1;P2;durP2;ratioP2
76380;SDS011;65202;52.520;10.528;2023-05-19T00:02:16;13.88;;;4.40;;
76380;SDS011;65202;52.520;10.528;2023-05-19T00:04:47;14.95;;;4.40;;
76380;SDS011;65202;52.520;10.528;2023-05-19T00:07:18;10.43;;;4.35;;
76380;SDS011;65202;52.520;10.528;2023-05-19T00:09:51;12.38;;;4.28;;
76380;SDS011;65202;52.520;10.528;2023-05-19T00:12:18;14.93;;;4.63;;
76380;SDS011;65202;52.520;10.528;2023-05-19T00:14:46;14.95;;;4.47;;
76380;SDS011;65202;52.520;10.528;2023-05-19T00:17:14;10.80;;;4.45;;
76380;SDS011;65202;52.520;10.528;2023-05-19T00:19:42;13.43;;;4.07;;
76380;SDS011;65202;52.520;10.528;2023-05-19T00:22:11;12.95;;;4.55;;
76380;SDS011;65202;52.520;10.528;2023-05-19T00:24:38;14.65;;;4.32;;
76380;SDS011;65202;52.520;10.528;2023-05-19T00:27:05;14.20;;;4.40;;
76380;SDS011;65202;52.520;10.528;2023-05-19T00:29:33;10.63;;;4.20;;
76380;SDS011;65202;52.520;10.528;2023-05-19T00:32:00;19.42;;;4.70;;
76380;SDS011;65202;52.520;10.528;2023-05-19T00:34:27;14.02;;;4.55;;
76380;SDS011;65202;52.520;10.528;2023-05-19T00:36:55;16.38;;;4.60;;
76380;SDS011;65202;52.520;10.528;2023-05-19T00:39:22;14.00;;;4.65;;
76380;SDS011;65202;52.520;10.528;2023-05-19T00:41:49;16.23;;;4.75;;
76380;SDS011;65202;52.520;10.528;2023-05-19T00:44:16;14.05;;;4.85;;
76380;SDS011;65202;52.520;10.528;2023-05-19T00:46:44;15.57;;;4.43;;
76380;SDS011;65202;52.520;10.528;2023-05-19T00:49:11;11.15;;;4.45;;
76380;SDS011;65202;52.520;10.528;2023-05-19T00:51:38;13.85;;;4.32;;
76380;SDS011;65202;52.520;10.528;2023-05-19T00:54:06;14.07;;;4.68;;
76380;SDS011;65202;52.520;10.528;2023-05-19T00:56:34;15.30;;;4.90;;
76380;SDS011;65202;52.520;10.528;2023-05-19T00:59:02;12.68;;;4.80;;
76380;SDS011;65202;52.520;10.528;2023-05-19T01:01:29;16.13;;;4.57;;
76380;SDS011;65202;52.520;10.528;2023-05-19T01:03:58;13.88;;;5.07;;
76380;SDS011;65202;52.520;10.528;2023-05-19T01:06:26;12.52;;;4.55;;
76380;SDS011;65202;52.520;10.528;2023-05-19T01:08:55;14.43;;;4.55;;
76380;SDS011;65202;52.520;10.528;2023-05-19T01:11:23;19.40;;;4.72;;
76380;SDS011;65202;52.520;10.528;2023-05-19T01:13:50;16.25;;;4.60;;
76380;SDS011;65202;52.520;10.528;2023-05-19T01:16:21;14.68;;;4.28;;
76380;SDS011;65202;52.520;10.528;2023-05-19T01:19:23;20.27;;;5.15;;
76380;SDS011;65202;52.520;10.528;2023-05-19T01:22:21;14.63;;;4.32;;
76380;SDS011;65202;52.520;10.528;2023-05-19T01:25:14;16.08;;;4.57;;
76380;SDS011;65202;52.520;10.528;2023-05-19T01:31:06;15.82;;;4.60;;
76380;SDS011;65202;52.520;10.528;2023-05-19T01:33:38;18.77;;;4.97;;
76380;SDS011;65202;52.520;10.528;2023-05-19T01:36:09;17.27;;;4.95;;
76380;SDS011;65202;52.520;10.528;2023-05-19T01:38:39;15.30;;;5.13;;
76380;SDS011;65202;52.520;10.528;2023-05-19T01:41:09;15.05;;;5.03;;
76380;SDS011;65202;52.520;10.528;2023-05-19T01:43:38;12.35;;;4.80;;
76380;SDS011;65202;52.520;10.528;2023-05-19T01:46:06;18.65;;;4.97;;
76380;SDS011;65202;52.520;10.528;2023-05-19T01:48:34;20.08;;;4.88;;
76380;SDS011;65202;52.520;10.528;2023-05-19T01:51:02;12.50;;;4.68;;
76380;SDS011;65202;52.520;10.528;2023-05-19T01:53:29;16.27;;;4.82;;
76380;SDS011;65202;52.520;10.528;2023-05-19T01:55:57;15.07;;;4.45;;
76380;SDS011;65202;52.520;10.528;2023-05-19T01:58:29;12.38;;;4.80;;
76380;SDS011;65202;52.520;10.528;2023-05-19T02:06:55;14.98;;;4.53;;
76380;SDS011;65202;52.520;10.528;2023-05-19T02:09:53;21.38;;;5.45;;
76380;SDS011;65202;52.520;10.528;2023-05-19T02:12:31;14.85;;;5.35;;
76380;SDS011;65202;52.520;10.528;2023-05-19T02:17:35;19.63;;;5.68;;
76380;SDS011;65202;52.520;10.528;2023-05-19T02:20:14;17.25;;;5.03;;
76380;SDS011;65202;52.520;10.528;2023-05-19T02:22:42;17.55;;;5.20;;
76380;SDS011;65202;52.520;10.528;2023-05-19T02:25:11;18.40;;;5.38;;
76380;SDS011;65202;52.520;10.528;2023-05-19T02:27:38;14.55;;;5.00;;
76380;SDS011;65202;52.520;10.528;2023-05-19T02:30:07;19.08;;;5.00;;
76380;SDS011;65202;52.520;10.528;2023-05-19T02:32:35;13.68;;;4.97;;
76380;SDS011;65202;52.520;10.528;2023-05-19T02:35:03;13.38;;;4.70;;
76380;SDS011;65202;52.520;10.528;2023-05-19T02:37:30;17.52;;;5.22;;
76380;SDS011;65202;52.520;10.528;2023-05-19T02:39:58;18.58;;;5.40;;
76380;SDS011;65202;52.520;10.528;2023-05-19T02:42:25;13.70;;;5.05;;
76380;SDS011;65202;52.520;10.528;2023-05-19T02:44:54;15.88;;;5.22;;
76380;SDS011;65202;52.520;10.528;2023-05-19T02:47:21;18.13;;;5.60;;
76380;SDS011;65202;52.520;10.528;2023-05-19T02:49:48;13.65;;;5.15;;
76380;SDS011;65202;52.520;10.528;2023-05-19T02:52:16;17.55;;;5.15;;
76380;SDS011;65202;52.520;10.528;2023-05-19T02:54:43;17.80;;;5.38;;
76380;SDS011;65202;52.520;10.528;2023-05-19T02:57:10;17.02;;;5.25;;
76380;SDS011;65202;52.520;10.528;2023-05-19T02:59:37;22.65;;;5.68;;
76380;SDS011;65202;52.520;10.528;2023-05-19T03:02:05;19.77;;;5.78;;
76380;SDS011;65202;52.520;10.528;2023-05-19T03:04:32;16.33;;;5.13;;
76380;SDS011;65202;52.520;10.528;2023-05-19T03:07:08;17.65;;;5.10;;
76380;SDS011;65202;52.520;10.528;2023-05-19T03:09:36;14.40;;;5.35;;
76380;SDS011;65202;52.520;10.528;2023-05-19T03:12:04;17.98;;;5.50;;
76380;SDS011;65202;52.520;10.528;2023-05-19T03:14:33;16.17;;;5.60;;
76380;SDS011;65202;52.520;10.528;2023-05-19T03:17:03;15.23;;;5.35;;
76380;SDS011;65202;52.520;10.528;2023-05-19T03:19:33;16.17;;;5.70;;
76380;SDS011;65202;52.520;10.528;2023-05-19T03:22:00;14.75;;;5.43;;
76380;SDS011;65202;52.520;10.528;2023-05-19T03:24:27;20.10;;;5.50;;
76380;SDS011;65202;52.520;10.528;2023-05-19T03:26:55;14.73;;;5.75;;
76380;SDS011;65202;52.520;10.528;2023-05-19T03:29:22;18.88;;;5.75;;
76380;SDS011;65202;52.520;10.528;2023-05-19T03:31:49;19.50;;;5.60;;
76380;SDS011;65202;52.520;10.528;2023-05-19T03:34:17;18.13;;;5.70;;
76380;SDS011;65202;52.520;10.528;2023-05-19T03:36:45;16.85;;;5.93;;
76380;SDS011;65202;52.520;10.528;2023-05-19T03:39:12;17.33;;;5.80;;
76380;SDS011;65202;52.520;10.528;2023-05-19T03:41:39;18.08;;;5.80;;
76380;SDS011;65202;52.520;10.528;2023-05-19T03:44:06;16.10;;;5.50;;
76380;SDS011;65202;52.520;10.528;2023-05-19T03:46:33;15.85;;;5.40;;
76380;SDS011;65202;52.520;10.528;2023-05-19T03:49:00;19.38;;;5.50;;
76380;SDS011;65202;52.520;10.528;2023-05-19T03:51:28;16.90;;;5.57;;
76380;SDS011;65202;52.520;10.528;2023-05-19T03:53:55;18.65;;;5.60;;
76380;SDS011;65202;52.520;10.528;2023-05-19T03:56:23;12.82;;;5.22;;
76380;SDS011;65202;52.520;10.528;2023-05-19T03:58:52;19.48;;;5.28;;
76380;SDS011;65202;52.520;10.528;2023-05-19T04:01:20;19.15;;;5.65;;
76380;SDS011;65202;52.520;10.528;2023-05-19T04:03:47;12.88;;;5.18;;
76380;SDS011;65202;52.520;10.528;2023-05-19T04:06:15;17.05;;;5.75;;
76380;SDS011;65202;52.520;10.528;2023-05-19T04:08:43;18.83;;;6.05;;
76380;SDS011;65202;52.520;10.528;2023-05-19T04:11:10;17.13;;;5.53;;
76380;SDS011;65202;52.520;10.528;2023-05-19T04:13:38;12.80;;;5.43;;
76380;SDS011;65202;52.520;10.528;2023-05-19T04:16:05;16.23;;;5.55;;
76380;SDS011;65202;52.520;10.528;2023-05-19T04:18:33;15.32;;;5.60;;
76380;SDS011;65202;52.520;10.528;2023-05-19T04:21:00;15.93;;;5.22;;
76380;SDS011;65202;52.520;10.528;2023-05-19T04:23:27;14.75;;;5.18;;
76380;SDS011;65202;52.520;10.528;2023-05-19T04:25:55;12.35;;;5.65;;
76380;SDS011;65202;52.520;10.528;2023-05-19T04:28:23;14.45;;;5.78;;
76380;SDS011;65202;52.520;10.528;2023-05-19T04:30:51;18.38;;;5.70;;
76380;SDS011;65202;52.520;10.528;2023-05-19T04:33:18;16.55;;;5.43;;
76380;SDS011;65202;52.520;10.528;2023-05-19T04:35:45;13.45;;;5.13;;
76380;SDS011;65202;52.520;10.528;2023-05-19T04:38:13;11.27;;;5.25;;
76380;SDS011;65202;52.520;10.528;2023-05-19T04:40:44;16.13;;;5.32;;
76380;SDS011;65202;52.520;10.528;2023-05-19T04:43:11;14.52;;;5.25;;
76380;SDS011;65202;52.520;10.528;2023-05-19T04:45:39;15.23;;;5.60;;
76380;SDS011;65202;52.520;10.528;2023-05-19T04:48:08;13.15;;;5.25;;
76380;SDS011;65202;52.520;10.528;2023-05-19T04:50:35;17.08;;;5.53;;
76380;SDS011;65202;52.520;10.528;2023-05-19T04:53:04;19.42;;;5.75;;
76380;SDS011;65202;52.520;10.528;2023-05-19T04:55:31;14.52;;;5.10;;
76380;SDS011;65202;52.520;10.528;2023-05-19T04:57:59;16.55;;;4.90;;
76380;SDS011;65202;52.520;10.528;2023-05-19T05:00:27;19.13;;;5.07;;
76380;SDS011;65202;52.520;10.528;2023-05-19T05:02:55;17.48;;;5.30;;
76380;SDS011;65202;52.520;10.528;2023-05-19T05:05:25;16.13;;;5.25;;
76380;SDS011;65202;52.520;10.528;2023-05-19T05:07:52;19.50;;;5.07;;
76380;SDS011;65202;52.520;10.528;2023-05-19T05:10:19;15.10;;;5.32;;
76380;SDS011;65202;52.520;10.528;2023-05-19T05:12:47;14.10;;;5.00;;
76380;SDS011;65202;52.520;10.528;2023-05-19T05:15:15;13.73;;;5.00;;
76380;SDS011;65202;52.520;10.528;2023-05-19T05:17:43;14.90;;;4.75;;
76380;SDS011;65202;52.520;10.528;2023-05-19T05:20:11;15.73;;;5.03;;
76380;SDS011;65202;52.520;10.528;2023-05-19T05:22:39;15.90;;;4.82;;
76380;SDS011;65202;52.520;10.528;2023-05-19T05:25:06;12.43;;;4.40;;
76380;SDS011;65202;52.520;10.528;2023-05-19T05:27:35;15.57;;;4.60;;
76380;SDS011;65202;52.520;10.528;2023-05-19T05:30:02;12.18;;;4.38;;
76380;SDS011;65202;52.520;10.528;2023-05-19T05:32:30;14.38;;;4.75;;
76380;SDS011;65202;52.520;10.528;2023-05-19T05:34:58;12.25;;;4.32;;
76380;SDS011;65202;52.520;10.528;2023-05-19T05:37:26;12.52;;;4.45;;
76380;SDS011;65202;52.520;10.528;2023-05-19T05:39:53;14.00;;;3.78;;
76380;SDS011;65202;52.520;10.528;2023-05-19T05:42:20;13.30;;;4.38;;
76380;SDS011;65202;52.520;10.528;2023-05-19T05:44:48;10.00;;;3.92;;
76380;SDS011;65202;52.520;10.528;2023-05-19T05:47:15;12.45;;;4.18;;
76380;SDS011;65202;52.520;10.528;2023-05-19T05:49:42;15.05;;;4.40;;
76380;SDS011;65202;52.520;10.528;2023-05-19T05:52:13;15.98;;;4.53;;
76380;SDS011;65202;52.520;10.528;2023-05-19T05:54:44;12.23;;;3.90;;
76380;SDS011;65202;52.520;10.528;2023-05-19T05:57:12;13.80;;;3.92;;
76380;SDS011;65202;52.520;10.528;2023-05-19T05:59:39;14.45;;;3.67;;
76380;SDS011;65202;52.520;10.528;2023-05-19T06:02:06;14.20;;;3.67;;
76380;SDS011;65202;52.520;10.528;2023-05-19T06:04:34;16.40;;;4.43;;
76380;SDS011;65202;52.520;10.528;2023-05-19T06:07:01;16.65;;;4.25;;
76380;SDS011;65202;52.520;10.528;2023-05-19T06:09:29;14.95;;;4.80;;
76380;SDS011;65202;52.520;10.528;2023-05-19T06:11:56;12.20;;;3.50;;
76380;SDS011;65202;52.520;10.528;2023-05-19T06:14:26;13.75;;;3.92;;
76380;SDS011;65202;52.520;10.528;2023-05-19T06:16:53;16.98;;;4.00;;
76380;SDS011;65202;52.520;10.528;2023-05-19T06:19:20;14.32;;;3.80;;
76380;SDS011;65202;52.520;10.528;2023-05-19T06:21:48;13.20;;;3.67;;
76380;SDS011;65202;52.520;10.528;2023-05-19T06:24:15;12.68;;;3.78;;
76380;SDS011;65202;52.520;10.528;2023-05-19T06:26:42;14.70;;;3.65;;
76380;SDS011;65202;52.520;10.528;2023-05-19T06:29:09;14.35;;;3.65;;
76380;SDS011;65202;52.520;10.528;2023-05-19T06:31:37;12.10;;;3.80;;
76380;SDS011;65202;52.520;10.528;2023-05-19T06:34:04;16.02;;;3.65;;
76380;SDS011;65202;52.520;10.528;2023-05-19T06:36:31;14.48;;;5.03;;
76380;SDS011;65202;52.520;10.528;2023-05-19T06:39:00;9.82;;;4.00;;
76380;SDS011;65202;52.520;10.528;2023-05-19T06:41:28;11.55;;;3.75;;
76380;SDS011;65202;52.520;10.528;2023-05-19T06:43:55;15.63;;;4.30;;
76380;SDS011;65202;52.520;10.528;2023-05-19T06:46:23;8.80;;;3.05;;
76380;SDS011;65202;52.520;10.528;2023-05-19T06:48:50;11.02;;;3.30;;
76380;SDS011;65202;52.520;10.528;2023-05-19T06:51:17;11.57;;;3.35;;
76380;SDS011;65202;52.520;10.528;2023-05-19T06:53:47;15.13;;;3.63;;
76380;SDS011;65202;52.520;10.528;2023-05-19T06:56:15;12.15;;;3.30;;
76380;SDS011;65202;52.520;10.528;2023-05-19T06:58:44;15.75;;;4.00;;
76380;SDS011;65202;52.520;10.528;2023-05-19T07:01:11;8.43;;;3.20;;
76380;SDS011;65202;52.520;10.528;2023-05-19T07:03:38;11.40;;;3.00;;
76380;SDS011;65202;52.520;10.528;2023-05-19T07:06:06;12.25;;;3.28;;
76380;SDS011;65202;52.520;10.528;2023-05-19T07:08:34;19.50;;;3.90;;
76380;SDS011;65202;52.520;10.528;2023-05-19T07:11:03;10.70;;;3.35;;
76380;SDS011;65202;52.520;10.528;2023-05-19T07:13:30;8.65;;;3.05;;
76380;SDS011;65202;52.520;10.528;2023-05-19T07:15:58;8.75;;;2.90;;
76380;SDS011;65202;52.520;10.528;2023-05-19T07:18:26;10.25;;;3.20;;
76380;SDS011;65202;52.520;10.528;2023-05-19T07:20:53;11.48;;;3.00;;
76380;SDS011;65202;52.520;10.528;2023-05-19T07:23:20;8.65;;;2.50;;
76380;SDS011;65202;52.520;10.528;2023-05-19T07:25:47;9.63;;;2.70;;
76380;SDS011;65202;52.520;10.528;2023-05-19T07:28:15;12.43;;;2.83;;
76380;SDS011;65202;52.520;10.528;2023-05-19T07:30:42;12.30;;;3.35;;
76380;SDS011;65202;52.520;10.528;2023-05-19T07:33:10;10.80;;;2.88;;
76380;SDS011;65202;52.520;10.528;2023-05-19T07:35:37;9.20;;;2.63;;
76380;SDS011;65202;52.520;10.528;2023-05-19T07:38:05;7.63;;;2.80;;
76380;SDS011;65202;52.520;10.528;2023-05-19T07:40:33;7.97;;;2.85;;
76380;SDS011;65202;52.520;10.528;2023-05-19T07:43:00;10.70;;;2.80;;
76380;SDS011;65202;52.520;10.528;2023-05-19T07:45:27;8.20;;;2.58;;
76380;SDS011;65202;52.520;10.528;2023-05-19T07:47:55;9.77;;;2.58;;
76380;SDS011;65202;52.520;10.528;2023-05-19T07:50:22;11.45;;;2.83;;
76380;SDS011;65202;52.520;10.528;2023-05-19T07:52:49;7.75;;;2.53;;
76380;SDS011;65202;52.520;10.528;2023-05-19T07:55:17;7.60;;;2.60;;
76380;SDS011;65202;52.520;10.528;2023-05-19T07:57:45;11.65;;;2.60;;
76380;SDS011;65202;52.520;10.528;2023-05-19T08:00:12;7.50;;;2.17;;
76380;SDS011;65202;52.520;10.528;2023-05-19T08:02:40;5.60;;;1.80;;
76380;SDS011;65202;52.520;10.528;2023-05-19T08:05:07;8.13;;;2.58;;
76380;SDS011;65202;52.520;10.528;2023-05-19T08:07:35;8.07;;;2.53;;
76380;SDS011;65202;52.520;10.528;2023-05-19T08:10:03;5.55;;;2.35;;
76380;SDS011;65202;52.520;10.528;2023-05-19T08:12:30;5.30;;;2.17;;
76380;SDS011;65202;52.520;10.528;2023-05-19T08:14:58;6.93;;;2.30;;
76380;SDS011;65202;52.520;10.528;2023-05-19T08:17:27;8.90;;;2.60;;
76380;SDS011;65202;52.520;10.528;2023-05-19T08:19:54;8.18;;;2.67;;
76380;SDS011;65202;52.520;10.528;2023-05-19T08:22:21;9.05;;;2.58;;
76380;SDS011;65202;52.520;10.528;2023-05-19T08:24:49;6.80;;;2.58;;
76380;SDS011;65202;52.520;10.528;2023-05-19T08:27:17;12.13;;;2.55;;
76380;SDS011;65202;52.520;10.528;2023-05-19T08:29:44;9.25;;;2.50;;
76380;SDS011;65202;52.520;10.528;2023-05-19T08:32:12;13.02;;;3.08;;
76380;SDS011;65202;52.520;10.528;2023-05-19T08:34:39;7.60;;;2.60;;
76380;SDS011;65202;52.520;10.528;2023-05-19T08:37:07;10.43;;;2.30;;
76380;SDS011;65202;52.520;10.528;2023-05-19T08:39:34;5.90;;;2.10;;
76380;SDS011;65202;52.520;10.528;2023-05-19T08:42:01;10.40;;;2.50;;
76380;SDS011;65202;52.520;10.528;2023-05-19T08:44:28;7.88;;;2.42;;
76380;SDS011;65202;52.520;10.528;2023-05-19T08:46:57;7.10;;;2.30;;
76380;SDS011;65202;52.520;10.528;2023-05-19T08:49:31;10.23;;;2.53;;
76380;SDS011;65202;52.520;10.528;2023-05-19T08:55:33;6.15;;;2.63;;
76380;SDS011;65202;52.520;10.528;2023-05-19T08:58:09;7.60;;;2.60;;
76380;SDS011;65202;52.520;10.528;2023-05-19T09:00:38;8.32;;;2.30;;
76380;SDS011;65202;52.520;10.528;2023-05-19T09:03:06;9.73;;;2.65;;
76380;SDS011;65202;52.520;10.528;2023-05-19T09:05:37;9.32;;;2.53;;
76380;SDS011;65202;52.520;10.528;2023-05-19T09:08:05;7.03;;;2.30;;
76380;SDS011;65202;52.520;10.528;2023-05-19T09:10:32;4.25;;;2.03;;
76380;SDS011;65202;52.520;10.528;2023-05-19T09:12:59;6.30;;;2.38;;
76380;SDS011;65202;52.520;10.528;2023-05-19T09:15:27;4.75;;;2.45;;
76380;SDS011;65202;52.520;10.528;2023-05-19T09:18:07;7.03;;;2.50;;
76380;SDS011;65202;52.520;10.528;2023-05-19T09:23:06;9.52;;;2.40;;
76380;SDS011;65202;52.520;10.528;2023-05-19T09:25:34;5.93;;;2.28;;
76380;SDS011;65202;52.520;10.528;2023-05-19T09:28:01;4.00;;;2.03;;
76380;SDS011;65202;52.520;10.528;2023-05-19T09:30:28;5.25;;;2.08;;
76380;SDS011;65202;52.520;10.528;2023-05-19T09:32:55;8.23;;;1.88;;
76380;SDS011;65202;52.520;10.528;2023-05-19T09:35:23;6.70;;;2.20;;
76380;SDS011;65202;52.520;10.528;2023-05-19T09:37:50;9.15;;;2.08;;
76380;SDS011;65202;52.520;10.528;2023-05-19T09:40:18;4.82;;;2.00;;
76380;SDS011;65202;52.520;10.528;2023-05-19T09:42:45;9.02;;;2.55;;
76380;SDS011;65202;52.520;10.528;2023-05-19T09:45:14;4.55;;;1.95;;
76380;SDS011;65202;52.520;10.528;2023-05-19T09:47:42;6.28;;;2.20;;
76380;SDS011;65202;52.520;10.528;2023-05-19T09:50:10;4.80;;;1.95;;
76380;SDS011;65202;52.520;10.528;2023-05-19T09:52:42;7.32;;;2.13;;
76380;SDS011;65202;52.520;10.528;2023-05-19T09:55:11;8.63;;;2.38;;
76380;SDS011;65202;52.520;10.528;2023-05-19T09:57:39;4.90;;;2.10;;
76380;SDS011;65202;52.520;10.528;2023-05-19T10:00:07;4.47;;;2.15;;
76380;SDS011;65202;52.520;10.528;2023-05-19T10:02:45;6.65;;;1.98;;
76380;SDS011;65202;52.520;10.528;2023-05-19T10:05:15;5.07;;;1.95;;
76380;SDS011;65202;52.520;10.528;2023-05-19T10:07:46;7.63;;;2.20;;
76380;SDS011;65202;52.520;10.528;2023-05-19T10:10:17;4.32;;;1.77;;
76380;SDS011;65202;52.520;10.528;2023-05-19T10:12:47;4.38;;;1.70;;
76380;SDS011;65202;52.520;10.528;2023-05-19T10:15:16;8.32;;;2.65;;
76380;SDS011;65202;52.520;10.528;2023-05-19T10:17:49;7.38;;;2.20;;
76380;SDS011;65202;52.520;10.528;2023-05-19T10:20:17;11.13;;;2.20;;
76380;SDS011;65202;52.520;10.528;2023-05-19T10:22:44;6.35;;;2.30;;
76380;SDS011;65202;52.520;10.528;2023-05-19T10:25:12;8.88;;;2.25;;
76380;SDS011;65202;52.520;10.528;2023-05-19T10:27:49;6.45;;;2.00;;
76380;SDS011;65202;52.520;10.528;2023-05-19T10:30:25;5.55;;;1.88;;
76380;SDS011;65202;52.520;10.528;2023-05-19T10:32:55;5.43;;;1.70;;
76380;SDS011;65202;52.520;10.528;2023-05-19T10:36:01;3.65;;;1.85;;
76380;SDS011;65202;52.520;10.528;2023-05-19T10:38:47;3.72;;;1.60;;
76380;SDS011;65202;52.520;10.528;2023-05-19T10:41:31;4.35;;;1.77;;
76380;SDS011;65202;52.520;10.528;2023-05-19T10:47:00;4.32;;;1.90;;
76380;SDS011;65202;52.520;10.528;2023-05-19T10:49:28;7.22;;;2.10;;
76380;SDS011;65202;52.520;10.528;2023-05-19T10:52:01;6.68;;;2.00;;
76380;SDS011;65202;52.520;10.528;2023-05-19T10:54:44;7.45;;;2.25;;
76380;SDS011;65202;52.520;10.528;2023-05-19T10:57:15;3.78;;;1.80;;
76380;SDS011;65202;52.520;10.528;2023-05-19T10:59:43;3.47;;;1.75;;
76380;SDS011;65202;52.520;10.528;2023-05-19T11:02:35;8.10;;;1.90;;
76380;SDS011;65202;52.520;10.528;2023-05-19T11:05:13;9.23;;;2.05;;
76380;SDS011;65202;52.520;10.528;2023-05-19T11:07:53;8.60;;;1.70;;
76380;SDS011;65202;52.520;10.528;2023-05-19T11:10:23;5.85;;;1.95;;
76380;SDS011;65202;52.520;10.528;2023-05-19T11:12:51;6.13;;;1.70;;
76380;SDS011;65202;52.520;10.528;2023-05-19T11:15:18;10.05;;;1.90;;
76380;SDS011;65202;52.520;10.528;2023-05-19T11:17:52;9.25;;;1.98;;
76380;SDS011;65202;52.520;10.528;2023-05-19T11:20:21;10.13;;;1.98;;
76380;SDS011;65202;52.520;10.528;2023-05-19T11:23:06;8.10;;;1.75;;
76380;SDS011;65202;52.520;10.528;2023-05-19T11:28:16;9.32;;;1.75;;
76380;SDS011;65202;52.520;10.528;2023-05-19T11:30:46;4.22;;;1.60;;
76380;SDS011;65202;52.520;10.528;2023-05-19T11:35:47;10.40;;;1.67;;
76380;SDS011;65202;52.520;10.528;2023-05-19T11:38:17;3.40;;;1.60;;
76380;SDS011;65202;52.520;10.528;2023-05-19T11:40:47;5.00;;;1.77;;
76380;SDS011;65202;52.520;10.528;2023-05-19T11:43:18;3.60;;;2.10;;
76380;SDS011;65202;52.520;10.528;2023-05-19T11:45:45;4.65;;;1.70;;
76380;SDS011;65202;52.520;10.528;2023-05-19T11:48:13;6.95;;;1.45;;
76380;SDS011;65202;52.520;10.528;2023-05-19T11:50:44;5.10;;;1.58;;
76380;SDS011;65202;52.520;10.528;2023-05-19T11:53:12;7.20;;;1.60;;
76380;SDS011;65202;52.520;10.528;2023-05-19T11:55:44;3.55;;;1.60;;
76380;SDS011;65202;52.520;10.528;2023-05-19T11:58:14;6.73;;;1.90;;
76380;SDS011;65202;52.520;10.528;2023-05-19T12:00:42;3.67;;;1.65;;
76380;SDS011;65202;52.520;10.528;2023-05-19T12:03:13;5.50;;;2.03;;
76380;SDS011;65202;52.520;10.528;2023-05-19T12:05:42;4.30;;;1.90;;
76380;SDS011;65202;52.520;10.528;2023-05-19T12:08:13;6.75;;;2.13;;
76380;SDS011;65202;52.520;10.528;2023-05-19T12:10:43;5.68;;;1.63;;
76380;SDS011;65202;52.520;10.528;2023-05-19T12:13:16;7.30;;;1.90;;
76380;SDS011;65202;52.520;10.528;2023-05-19T12:15:43;8.10;;;2.17;;
76380;SDS011;65202;52.520;10.528;2023-05-19T12:18:10;6.05;;;1.60;;
76380;SDS011;65202;52.520;10.528;2023-05-19T12:20:38;2.53;;;1.60;;
76380;SDS011;65202;52.520;10.528;2023-05-19T12:23:05;4.97;;;1.85;;
76380;SDS011;65202;52.520;10.528;2023-05-19T12:25:33;4.80;;;1.83;;
76380;SDS011;65202;52.520;10.528;2023-05-19T12:28:01;6.28;;;1.98;;
76380;SDS011;65202;52.520;10.528;2023-05-19T12:30:30;4.45;;;2.00;;
76380;SDS011;65202;52.520;10.528;2023-05-19T12:33:00;5.07;;;2.08;;
76380;SDS011;65202;52.520;10.528;2023-05-19T12:35:28;6.18;;;1.70;;
76380;SDS011;65202;52.520;10.528;2023-05-19T12:38:05;3.35;;;1.63;;
76380;SDS011;65202;52.520;10.528;2023-05-19T12:40:33;3.97;;;1.60;;
76380;SDS011;65202;52.520;10.528;2023-05-19T12:43:02;7.53;;;1.50;;
76380;SDS011;65202;52.520;10.528;2023-05-19T12:45:33;7.32;;;1.70;;
76380;SDS011;65202;52.520;10.528;2023-05-19T12:48:03;4.80;;;1.42;;
76380;SDS011;65202;52.520;10.528;2023-05-19T12:50:32;3.63;;;1.60;;
76380;SDS011;65202;52.520;10.528;2023-05-19T12:53:00;9.60;;;1.88;;
76380;SDS011;65202;52.520;10.528;2023-05-19T12:55:28;3.83;;;1.50;;
76380;SDS011;65202;52.520;10.528;2023-05-19T12:57:56;2.80;;;1.70;;
76380;SDS011;65202;52.520;10.528;2023-05-19T13:00:24;20.92;;;2.70;;
76380;SDS011;65202;52.520;10.528;2023-05-19T13:05:32;3.05;;;1.67;;
76380;SDS011;65202;52.520;10.528;2023-05-19T13:08:05;3.90;;;1.90;;
76380;SDS011;65202;52.520;10.528;2023-05-19T13:10:35;6.53;;;1.90;;
76380;SDS011;65202;52.520;10.528;2023-05-19T13:13:05;9.25;;;1.70;;
76380;SDS011;65202;52.520;10.528;2023-05-19T13:15:35;4.85;;;1.70;;
76380;SDS011;65202;52.520;10.528;2023-05-19T13:18:06;4.77;;;1.97;;
76380;SDS011;65202;52.520;10.528;2023-05-19T13:20:36;5.15;;;1.85;;
76380;SDS011;65202;52.520;10.528;2023-05-19T13:23:08;5.55;;;1.80;;
76380;SDS011;65202;52.520;10.528;2023-05-19T13:25:39;6.63;;;1.80;;
76380;SDS011;65202;52.520;10.528;2023-05-19T13:28:08;6.72;;;1.90;;
76380;SDS011;65202;52.520;10.528;2023-05-19T13:30:36;4.72;;;1.88;;
76380;SDS011;65202;52.520;10.528;2023-05-19T13:33:06;8.93;;;2.00;;
76380;SDS011;65202;52.520;10.528;2023-05-19T13:35:33;5.53;;;1.60;;
76380;SDS011;65202;52.520;10.528;2023-05-19T13:38:04;3.22;;;1.73;;
76380;SDS011;65202;52.520;10.528;2023-05-19T13:40:35;7.15;;;2.00;;
76380;SDS011;65202;52.520;10.528;2023-05-19T13:43:03;4.18;;;1.95;;
76380;SDS011;65202;52.520;10.528;2023-05-19T13:45:31;4.30;;;2.00;;
76380;SDS011;65202;52.520;10.528;2023-05-19T13:47:58;5.78;;;1.63;;
76380;SDS011;65202;52.520;10.528;2023-05-19T13:50:26;9.90;;;2.20;;
76380;SDS011;65202;52.520;10.528;2023-05-19T13:52:53;4.35;;;1.80;;
76380;SDS011;65202;52.520;10.528;2023-05-19T13:55:20;9.32;;;2.55;;
76380;SDS011;65202;52.520;10.528;2023-05-19T13:57:49;5.38;;;1.70;;
76380;SDS011;65202;52.520;10.528;2023-05-19T14:00:17;6.53;;;1.73;;
76380;SDS011;65202;52.520;10.528;2023-05-19T14:02:45;4.80;;;1.80;;
76380;SDS011;65202;52.520;10.528;2023-05-19T14:05:12;5.65;;;2.00;;
76380;SDS011;65202;52.520;10.528;2023-05-19T14:07:39;6.55;;;1.60;;
76380;SDS011;65202;52.520;10.528;2023-05-19T14:10:08;3.63;;;1.67;;
76380;SDS011;65202;52.520;10.528;2023-05-19T14:12:35;4.13;;;1.60;;
76380;SDS011;65202;52.520;10.528;2023-05-19T14:15:23;4.32;;;1.70;;
76380;SDS011;65202;52.520;10.528;2023-05-19T14:17:50;6.43;;;1.90;;
76380;SDS011;65202;52.520;10.528;2023-05-19T14:20:19;8.57;;;2.47;;
76380;SDS011;65202;52.520;10.528;2023-05-19T14:22:46;6.65;;;1.80;;
76380;SDS011;65202;52.520;10.528;2023-05-19T14:25:13;3.22;;;1.52;;
76380;SDS011;65202;52.520;10.528;2023-05-19T14:27:40;3.10;;;1.50;;
76380;SDS011;65202;52.520;10.528;2023-05-19T14:30:08;4.43;;;2.10;;
76380;SDS011;65202;52.520;10.528;2023-05-19T14:32:35;5.05;;;1.58;;
76380;SDS011;65202;52.520;10.528;2023-05-19T14:35:03;3.65;;;1.55;;
76380;SDS011;65202;52.520;10.528;2023-05-19T14:37:31;4.40;;;1.50;;
76380;SDS011;65202;52.520;10.528;2023-05-19T14:39:58;10.52;;;1.80;;
76380;SDS011;65202;52.520;10.528;2023-05-19T14:42:26;3.78;;;1.90;;
76380;SDS011;65202;52.520;10.528;2023-05-19T14:44:53;3.40;;;1.70;;
76380;SDS011;65202;52.520;10.528;2023-05-19T14:47:20;5.30;;;1.65;;
76380;SDS011;65202;52.520;10.528;2023-05-19T14:49:47;7.05;;;2.03;;
76380;SDS011;65202;52.520;10.528;2023-05-19T14:52:14;4.15;;;1.80;;
76380;SDS011;65202;52.520;10.528;2023-05-19T14:54:42;3.55;;;1.88;;
76380;SDS011;65202;52.520;10.528;2023-05-19T14:57:09;6.40;;;1.60;;
76380;SDS011;65202;52.520;10.528;2023-05-19T14:59:36;4.68;;;1.73;;
76380;SDS011;65202;52.520;10.528;2023-05-19T15:02:04;5.35;;;1.83;;
76380;SDS011;65202;52.520;10.528;2023-05-19T15:04:32;10.13;;;2.10;;
76380;SDS011;65202;52.520;10.528;2023-05-19T15:07:00;4.15;;;1.95;;
76380;SDS011;65202;52.520;10.528;2023-05-19T15:09:30;5.80;;;2.10;;